Danube Voyager — YP2287 — position and weather

sailwx.info

Track history (hours):
 
Tides and Currents Weather Stations Pressure Air Temp Water Temp Dewpoint Dewpoint Depression Visibility Wind Speed Wind Dir Waves Ship Positions

Danube Voyager

Last reported at 2018-Jun-13 05:00 UTC. Time now 2018-Jun-18 09:15 UTC.
Position N 44°15' E 028°18'.

Length 253 m; draft 0.2 m.

Type: Ship. MMSI: 264162287.

Date/timePositionNaut miles runAvg speedWind from/ knotsBaromVisibWave heightAir tempDewpointWater temp
2018-Jun-13 05:00N 44°15' E 028°18'3 6.6
2018-Jun-13 04:30N 44°14' E 028°22'10 6.2
2018-Jun-13 02:52N 44°06' E 028°31'2 6.6
2018-Jun-13 02:30N 44°06' E 028°34'2 4.0
2018-Jun-13 02:00N 44°06' E 028°37'0 0.8
2018-Jun-13 01:30N 44°06' E 028°38'2 3.4
2018-Jun-13 01:00N 44°07' E 028°39'0 0.1
2018-Jun-13 00:30N 44°08' E 028°39'0 0.0
2018-Jun-13 00:00N 44°08' E 028°39'0 0.0
2018-Jun-12 23:30N 44°08' E 028°39'0 0.0
2018-Jun-12 23:00N 44°08' E 028°39'0 0.0
2018-Jun-12 22:30N 44°08' E 028°39'0 0.0
2018-Jun-12 22:00N 44°08' E 028°39'0 0.0
2018-Jun-12 21:30N 44°08' E 028°39'0 0.0
2018-Jun-12 21:00N 44°08' E 028°39'0 0.0
2018-Jun-12 20:30N 44°08' E 028°39'0 0.0
2018-Jun-12 20:00N 44°08' E 028°39'0 0.0
2018-Jun-12 19:30N 44°08' E 028°39'0 0.0
2018-Jun-12 19:00N 44°08' E 028°39'0 0.0
2018-Jun-12 18:30N 44°08' E 028°39'0 0.0
2018-Jun-12 17:57N 44°08' E 028°39'0 0.0
2018-Jun-12 17:29N 44°08' E 028°39'0 0.3
2018-Jun-12 17:00N 44°08' E 028°39'2 3.0
2018-Jun-12 16:30N 44°06' E 028°39'0 0.5
2018-Jun-12 16:00N 44°06' E 028°39'2 3.2
2018-Jun-12 15:30N 44°07' E 028°39'0 0.2
2018-Jun-12 15:00N 44°07' E 028°39'0 0.0
2018-Jun-12 14:30N 44°07' E 028°39'0 0.0
2018-Jun-12 14:00N 44°07' E 028°39'0 0.0
2018-Jun-12 13:30N 44°07' E 028°39'0 0.0
2018-Jun-12 13:00N 44°07' E 028°39'0 0.6
2018-Jun-12 12:31N 44°08' E 028°39'0 0.5
2018-Jun-12 12:00N 44°08' E 028°39'0 0.3
2018-Jun-12 11:30N 44°07' E 028°39'0 0.1
2018-Jun-12 11:00N 44°08' E 028°39'0 0.1
2018-Jun-12 10:30N 44°08' E 028°39'0 0.0
2018-Jun-12 10:00N 44°08' E 028°39'0 0.0
2018-Jun-12 09:30N 44°08' E 028°39'1 1.8
2018-Jun-12 09:00N 44°07' E 028°39'0 0.1
2018-Jun-12 08:30N 44°07' E 028°39'0 0.9
2018-Jun-12 08:00N 44°06' E 028°39'0 0.9
2018-Jun-12 07:30N 44°06' E 028°39'0 0.0
2018-Jun-12 07:00N 44°06' E 028°39'0 0.0
2018-Jun-12 06:30N 44°06' E 028°39'1 2.6
2018-Jun-12 06:00N 44°07' E 028°39'1 2.5
2018-Jun-12 05:30N 44°06' E 028°39'0 0.1
2018-Jun-12 05:00N 44°06' E 028°39'2 3.1
2018-Jun-12 04:30N 44°07' E 028°39'0 0.0
2018-Jun-12 04:00N 44°07' E 028°39'0 0.0
2018-Jun-12 03:30N 44°07' E 028°39'0 0.0
2018-Jun-12 03:00N 44°07' E 028°39'0 0.0
2018-Jun-12 02:29N 44°07' E 028°39'0 0.0
2018-Jun-12 02:00N 44°07' E 028°39'0 0.0
2018-Jun-12 01:29N 44°07' E 028°39'0 0.0
2018-Jun-12 01:00N 44°07' E 028°39'0 0.0
2018-Jun-12 00:30N 44°07' E 028°39'0 0.0
2018-Jun-12 00:00N 44°07' E 028°39'0 0.0
2018-Jun-11 23:30N 44°07' E 028°39'0 0.0
2018-Jun-11 23:00N 44°07' E 028°39'0 0.6
2018-Jun-11 22:30N 44°07' E 028°39'2 3.1
2018-Jun-11 22:00N 44°06' E 028°37'0 0.2
2018-Jun-11 21:30N 44°06' E 028°37'1 1.1
2018-Jun-11 21:00N 44°06' E 028°36'0 0.0
2018-Jun-11 20:30N 44°06' E 028°36'0 0.6
2018-Jun-11 20:00N 44°06' E 028°36'2 3.9
2018-Jun-11 19:30N 44°06' E 028°33'7 4.6
2018-Jun-11 17:53N 44°10' E 028°25'2 5.6
2018-Jun-11 17:30N 44°12' E 028°23'3 6.5
2018-Jun-11 17:00N 44°15' E 028°21'3 6.5
2018-Jun-11 16:29N 44°15' E 028°16'3 6.6
2018-Jun-11 16:00N 44°16' E 028°12'4 6.5
2018-Jun-11 15:19N 44°16' E 028°06'6 0.5
2018-Jun-11 02:30N 44°22' E 028°01'0 0.0
2018-Jun-11 01:35N 44°22' E 028°01'0 0.0
2018-Jun-11 01:27N 44°22' E 028°01'0 0.0
2018-Jun-11 01:00N 44°22' E 028°01'0 0.0
2018-Jun-11 00:29N 44°22' E 028°01'0 0.0
2018-Jun-11 00:00N 44°22' E 028°01'0 0.0
2018-Jun-10 23:30N 44°22' E 028°01'0 0.0
2018-Jun-10 22:59N 44°22' E 028°01'0 0.0
2018-Jun-10 22:29N 44°22' E 028°01'0 0.0
2018-Jun-10 22:00N 44°22' E 028°01'0 0.0
2018-Jun-10 21:30N 44°22' E 028°01'0 0.0
2018-Jun-10 21:00N 44°22' E 028°01'0 0.0
2018-Jun-10 20:29N 44°22' E 028°01'0 0.0
2018-Jun-10 19:59N 44°22' E 028°01'0 0.0
2018-Jun-10 19:30N 44°22' E 028°01'39 2.7
2018-Jun-10 05:14N 44°07' E 027°11'0 0.0
2018-Jun-10 04:54N 44°07' E 027°11'0 0.0
2018-Jun-10 04:19N 44°07' E 027°11'0 0.0
2018-Jun-10 03:54N 44°07' E 027°11'0 0.0
2018-Jun-10 03:29N 44°07' E 027°11'0 0.0
2018-Jun-10 03:00N 44°07' E 027°11'0 0.0
2018-Jun-10 02:27N 44°07' E 027°11'0 0.0
2018-Jun-10 01:11N 44°07' E 027°11'0 0.0
2018-Jun-10 01:00N 44°07' E 027°11'0 0.0
2018-Jun-10 00:30N 44°07' E 027°11'0 0.0
2018-Jun-10 00:00N 44°07' E 027°11'0 0.0
2018-Jun-09 23:30N 44°07' E 027°11'0 0.0
2018-Jun-09 23:00N 44°07' E 027°11'0 0.0
2018-Jun-09 22:30N 44°07' E 027°11'0 0.0
2018-Jun-09 22:00N 44°07' E 027°11'0 0.0
2018-Jun-09 21:29N 44°07' E 027°11'0 0.0
2018-Jun-09 21:00N 44°07' E 027°11'0 0.0
2018-Jun-09 20:30N 44°07' E 027°11'0 0.0
2018-Jun-09 20:00N 44°07' E 027°11'0 0.0
2018-Jun-09 19:30N 44°07' E 027°11'0 0.0
2018-Jun-09 18:58N 44°07' E 027°11'0 0.0
2018-Jun-09 18:30N 44°07' E 027°11'0 0.0
2018-Jun-09 17:58N 44°07' E 027°11'0 0.0
2018-Jun-08 23:58N 44°07' E 027°11'0 0.0
2018-Jun-08 23:30N 44°07' E 027°11'0 0.0
2018-Jun-08 22:50N 44°07' E 027°11'0 0.0
2018-Jun-08 22:03N 44°07' E 027°11'0 0.0
2018-Jun-08 21:44N 44°07' E 027°11'0 0.0
2018-Jun-08 20:41N 44°07' E 027°11'0 0.0
2018-Jun-08 20:30N 44°07' E 027°11'0 0.0
2018-Jun-08 19:59N 44°07' E 027°11'0 0.0
2018-Jun-08 19:30N 44°07' E 027°11'0 0.0
2018-Jun-08 19:00N 44°07' E 027°11'  
Track history (hours):
 
Tides and Currents Weather Stations Pressure Air Temp Water Temp Dewpoint Dewpoint Depression Visibility Wind Speed Wind Dir Waves Ship Positions

Danube Voyager

Last reported at 2018-Jun-13 05:00 UTC. Time now 2018-Jun-18 09:15 UTC.
Position N 44°15' E 028°18'.

Length 253 m; draft 0.2 m.

Type: Ship. MMSI: 264162287.

Date/timePositionNaut miles runAvg speedWind from/ knotsBaromVisibWave heightAir tempDewpointWater temp
2018-Jun-13 05:00N 44°15' E 028°18'3 6.6
2018-Jun-13 04:30N 44°14' E 028°22'10 6.2
2018-Jun-13 02:52N 44°06' E 028°31'2 6.6
2018-Jun-13 02:30N 44°06' E 028°34'2 4.0
2018-Jun-13 02:00N 44°06' E 028°37'0 0.8
2018-Jun-13 01:30N 44°06' E 028°38'2 3.4
2018-Jun-13 01:00N 44°07' E 028°39'0 0.1
2018-Jun-13 00:30N 44°08' E 028°39'0 0.0
2018-Jun-13 00:00N 44°08' E 028°39'0 0.0
2018-Jun-12 23:30N 44°08' E 028°39'0 0.0
2018-Jun-12 23:00N 44°08' E 028°39'0 0.0
2018-Jun-12 22:30N 44°08' E 028°39'0 0.0
2018-Jun-12 22:00N 44°08' E 028°39'0 0.0
2018-Jun-12 21:30N 44°08' E 028°39'0 0.0
2018-Jun-12 21:00N 44°08' E 028°39'0 0.0
2018-Jun-12 20:30N 44°08' E 028°39'0 0.0
2018-Jun-12 20:00N 44°08' E 028°39'0 0.0
2018-Jun-12 19:30N 44°08' E 028°39'0 0.0
2018-Jun-12 19:00N 44°08' E 028°39'0 0.0
2018-Jun-12 18:30N 44°08' E 028°39'0 0.0
2018-Jun-12 17:57N 44°08' E 028°39'0 0.0
2018-Jun-12 17:29N 44°08' E 028°39'0 0.3
2018-Jun-12 17:00N 44°08' E 028°39'2 3.0
2018-Jun-12 16:30N 44°06' E 028°39'0 0.5
2018-Jun-12 16:00N 44°06' E 028°39'2 3.2
2018-Jun-12 15:30N 44°07' E 028°39'0 0.2
2018-Jun-12 15:00N 44°07' E 028°39'0 0.0
2018-Jun-12 14:30N 44°07' E 028°39'0 0.0
2018-Jun-12 14:00N 44°07' E 028°39'0 0.0
2018-Jun-12 13:30N 44°07' E 028°39'0 0.0
2018-Jun-12 13:00N 44°07' E 028°39'0 0.6
2018-Jun-12 12:31N 44°08' E 028°39'0 0.5
2018-Jun-12 12:00N 44°08' E 028°39'0 0.3
2018-Jun-12 11:30N 44°07' E 028°39'0 0.1
2018-Jun-12 11:00N 44°08' E 028°39'0 0.1
2018-Jun-12 10:30N 44°08' E 028°39'0 0.0
2018-Jun-12 10:00N 44°08' E 028°39'0 0.0
2018-Jun-12 09:30N 44°08' E 028°39'1 1.8
2018-Jun-12 09:00N 44°07' E 028°39'0 0.1
2018-Jun-12 08:30N 44°07' E 028°39'0 0.9
2018-Jun-12 08:00N 44°06' E 028°39'0 0.9
2018-Jun-12 07:30N 44°06' E 028°39'0 0.0
2018-Jun-12 07:00N 44°06' E 028°39'0 0.0
2018-Jun-12 06:30N 44°06' E 028°39'1 2.6
2018-Jun-12 06:00N 44°07' E 028°39'1 2.5
2018-Jun-12 05:30N 44°06' E 028°39'0 0.1
2018-Jun-12 05:00N 44°06' E 028°39'2 3.1
2018-Jun-12 04:30N 44°07' E 028°39'0 0.0
2018-Jun-12 04:00N 44°07' E 028°39'0 0.0
2018-Jun-12 03:30N 44°07' E 028°39'0 0.0
2018-Jun-12 03:00N 44°07' E 028°39'0 0.0
2018-Jun-12 02:29N 44°07' E 028°39'0 0.0
2018-Jun-12 02:00N 44°07' E 028°39'0 0.0
2018-Jun-12 01:29N 44°07' E 028°39'0 0.0
2018-Jun-12 01:00N 44°07' E 028°39'0 0.0
2018-Jun-12 00:30N 44°07' E 028°39'0 0.0
2018-Jun-12 00:00N 44°07' E 028°39'0 0.0
2018-Jun-11 23:30N 44°07' E 028°39'0 0.0
2018-Jun-11 23:00N 44°07' E 028°39'0 0.6
2018-Jun-11 22:30N 44°07' E 028°39'2 3.1
2018-Jun-11 22:00N 44°06' E 028°37'0 0.2
2018-Jun-11 21:30N 44°06' E 028°37'1 1.1
2018-Jun-11 21:00N 44°06' E 028°36'0 0.0
2018-Jun-11 20:30N 44°06' E 028°36'0 0.6
2018-Jun-11 20:00N 44°06' E 028°36'2 3.9
2018-Jun-11 19:30N 44°06' E 028°33'7 4.6
2018-Jun-11 17:53N 44°10' E 028°25'2 5.6
2018-Jun-11 17:30N 44°12' E 028°23'3 6.5
2018-Jun-11 17:00N 44°15' E 028°21'3 6.5
2018-Jun-11 16:29N 44°15' E 028°16'3 6.6
2018-Jun-11 16:00N 44°16' E 028°12'4 6.5
2018-Jun-11 15:19N 44°16' E 028°06'6 0.5
2018-Jun-11 02:30N 44°22' E 028°01'0 0.0
2018-Jun-11 01:35N 44°22' E 028°01'0 0.0
2018-Jun-11 01:27N 44°22' E 028°01'0 0.0
2018-Jun-11 01:00N 44°22' E 028°01'0 0.0
2018-Jun-11 00:29N 44°22' E 028°01'0 0.0
2018-Jun-11 00:00N 44°22' E 028°01'0 0.0
2018-Jun-10 23:30N 44°22' E 028°01'0 0.0
2018-Jun-10 22:59N 44°22' E 028°01'0 0.0
2018-Jun-10 22:29N 44°22' E 028°01'0 0.0
2018-Jun-10 22:00N 44°22' E 028°01'0 0.0
2018-Jun-10 21:30N 44°22' E 028°01'0 0.0
2018-Jun-10 21:00N 44°22' E 028°01'0 0.0
2018-Jun-10 20:29N 44°22' E 028°01'0 0.0
2018-Jun-10 19:59N 44°22' E 028°01'0 0.0
2018-Jun-10 19:30N 44°22' E 028°01'39 2.7
2018-Jun-10 05:14N 44°07' E 027°11'0 0.0
2018-Jun-10 04:54N 44°07' E 027°11'0 0.0
2018-Jun-10 04:19N 44°07' E 027°11'0 0.0
2018-Jun-10 03:54N 44°07' E 027°11'0 0.0
2018-Jun-10 03:29N 44°07' E 027°11'0 0.0
2018-Jun-10 03:00N 44°07' E 027°11'0 0.0
2018-Jun-10 02:27N 44°07' E 027°11'0 0.0
2018-Jun-10 01:11N 44°07' E 027°11'0 0.0
2018-Jun-10 01:00N 44°07' E 027°11'0 0.0
2018-Jun-10 00:30N 44°07' E 027°11'0 0.0
2018-Jun-10 00:00N 44°07' E 027°11'0 0.0
2018-Jun-09 23:30N 44°07' E 027°11'0 0.0
2018-Jun-09 23:00N 44°07' E 027°11'0 0.0
2018-Jun-09 22:30N 44°07' E 027°11'0 0.0
2018-Jun-09 22:00N 44°07' E 027°11'0 0.0
2018-Jun-09 21:29N 44°07' E 027°11'0 0.0
2018-Jun-09 21:00N 44°07' E 027°11'0 0.0
2018-Jun-09 20:30N 44°07' E 027°11'0 0.0
2018-Jun-09 20:00N 44°07' E 027°11'0 0.0
2018-Jun-09 19:30N 44°07' E 027°11'0 0.0
2018-Jun-09 18:58N 44°07' E 027°11'0 0.0
2018-Jun-09 18:30N 44°07' E 027°11'0 0.0
2018-Jun-09 17:58N 44°07' E 027°11'0 0.0
2018-Jun-08 23:58N 44°07' E 027°11'0 0.0
2018-Jun-08 23:30N 44°07' E 027°11'0 0.0
2018-Jun-08 22:50N 44°07' E 027°11'0 0.0
2018-Jun-08 22:03N 44°07' E 027°11'0 0.0
2018-Jun-08 21:44N 44°07' E 027°11'0 0.0
2018-Jun-08 20:41N 44°07' E 027°11'0 0.0
2018-Jun-08 20:30N 44°07' E 027°11'0 0.0
2018-Jun-08 19:59N 44°07' E 027°11'0 0.0
2018-Jun-08 19:30N 44°07' E 027°11'0 0.0
2018-Jun-08 19:00N 44°07' E 027°11'  

Dump ship's entire track history